Time;durP1;ratioP1;P1;durP2;ratioP2;P2;SDS_P1;SDS_P2;PMS_P1;PMS_P2;Temp;Humidity;BMP_temperature;BMP_pressure;BME280_temperature;BME280_humidity;BME280_pressure;Samples;Min_cycle;Max_cycle;Signal;HPM_P1;HPM_P2
2021/08/23 00:00:31;;;;;;;8.25;4.30;;;;;;;19.49;61.28;101809.00;4924849;28;120849;-96
2021/08/23 00:02:57;;;;;;;8.35;4.45;;;;;;;19.60;61.19;101817.53;4939311;28;120681;-95
2021/08/23 00:05:23;;;;;;;7.25;3.75;;;;;;;19.49;61.19;101812.56;4924560;28;119780;-96
2021/08/23 00:07:49;;;;;;;5.60;3.40;;;;;;;19.55;61.15;101826.56;4941423;28;119622;-95
2021/08/23 00:10:15;;;;;;;6.57;4.10;;;;;;;19.29;61.11;101781.91;4960128;28;121044;-95
2021/08/23 00:12:40;;;;;;;8.55;4.00;;;;;;;19.54;61.22;101825.81;4937171;28;118714;-95
2021/08/23 00:15:08;;;;;;;7.32;4.15;;;;;;;19.56;61.24;101834.44;4920321;28;119634;-92
2021/08/23 00:17:33;;;;;;;6.60;3.40;;;;;;;19.26;60.81;101782.91;4948411;28;122069;-95
2021/08/23 00:19:59;;;;;;;9.43;4.10;;;;;;;19.37;61.24;101805.28;4933938;28;118910;-95
2021/08/23 00:24:56;;;;;;;7.88;4.30;;;;;;;19.45;60.90;101834.25;4956475;28;122410;-96
2021/08/23 00:27:24;;;;;;;6.00;3.60;;;;;;;19.54;60.79;101855.66;4960491;28;118893;-95
2021/08/23 00:29:49;;;;;;;6.20;3.85;;;;;;;19.29;61.21;101823.66;4960335;28;120989;-93
2021/08/23 00:32:15;;;;;;;9.55;4.20;;;;;;;19.07;60.93;101795.50;4940712;28;123475;-94
2021/08/23 00:34:41;;;;;;;9.43;4.15;;;;;;;19.05;61.05;101789.66;4935618;28;121918;-92
2021/08/23 00:37:09;;;;;;;5.60;3.83;;;;;;;19.05;61.08;101798.00;4960405;28;120364;-95
2021/08/23 00:39:36;;;;;;;6.50;3.38;;;;;;;19.32;61.04;101837.34;4942834;28;118848;-95
2021/08/23 00:42:04;;;;;;;9.00;3.25;;;;;;;19.04;60.85;101805.56;4960129;28;119304;-94
2021/08/23 00:44:35;;;;;;;6.00;3.90;;;;;;;19.05;61.00;101806.34;4945820;28;122517;-95
2021/08/23 00:47:01;;;;;;;6.53;3.53;;;;;;;19.09;61.20;101810.44;4957334;28;119954;-95
2021/08/23 00:49:30;;;;;;;5.72;3.50;;;;;;;19.04;60.66;101793.69;4945355;28;121258;-95
2021/08/23 00:51:58;;;;;;;5.72;3.25;;;;;;;19.03;60.53;101809.59;4949013;28;122159;-94
2021/08/23 00:54:24;;;;;;;9.05;3.30;;;;;;;18.98;60.79;101808.28;4946549;28;121065;-95
2021/08/23 00:56:50;;;;;;;7.40;3.33;;;;;;;18.95;60.62;101808.47;4929042;28;119447;-95
2021/08/23 00:59:18;;;;;;;6.10;3.35;;;;;;;18.94;60.66;101812.50;4959827;28;118704;-92
2021/08/23 01:02:12;;;;;;;5.50;3.53;;;;;;;19.35;60.60;101873.81;4959648;28;120860;-96
2021/08/23 01:04:52;;;;;;;5.85;3.40;;;;;;;19.33;60.57;101877.84;4943115;28;122140;-93
2021/08/23 01:07:21;;;;;;;7.68;3.40;;;;;;;19.14;60.66;101853.50;4927895;28;119896;-93
2021/08/23 01:10:01;;;;;;;5.65;3.38;;;;;;;19.21;60.45;101872.59;4943899;28;120688;-96
2021/08/23 01:12:28;;;;;;;4.68;3.40;;;;;;;18.87;60.52;101819.22;4936490;28;121719;-95
2021/08/23 01:14:55;;;;;;;5.55;3.15;;;;;;;18.99;60.53;101848.75;4962054;28;118705;-94
2021/08/23 01:17:23;;;;;;;4.47;3.45;;;;;;;18.87;60.47;101833.09;4952716;28;122107;-91
2021/08/23 01:19:54;;;;;;;8.55;3.20;;;;;;;18.86;60.67;101826.00;4948744;28;119186;-95
2021/08/23 01:22:21;;;;;;;7.00;3.20;;;;;;;18.83;60.50;101834.56;4942912;28;120661;-96
2021/08/23 01:24:52;;;;;;;6.65;3.20;;;;;;;18.84;60.59;101834.06;4941877;28;121626;-93
2021/08/23 01:27:18;;;;;;;4.70;2.83;;;;;;;18.89;60.17;101841.72;4946514;28;118700;-95
2021/08/23 01:29:55;;;;;;;7.63;3.28;;;;;;;18.82;60.19;101839.34;4959138;28;119957;-94
2021/08/23 01:32:23;;;;;;;6.65;3.63;;;;;;;18.82;59.78;101842.13;4939149;28;121802;-95
2021/08/23 01:34:59;;;;;;;7.60;3.13;;;;;;;18.79;59.97;101836.75;4945095;28;118694;-93
2021/08/23 01:37:25;;;;;;;4.55;3.30;;;;;;;19.05;60.11;101881.44;4945515;28;121047;-92
2021/08/23 01:39:52;;;;;;;4.30;2.65;;;;;;;19.01;60.03;101874.03;4954883;28;118733;-95
2021/08/23 01:42:18;;;;;;;6.50;3.00;;;;;;;18.76;59.64;101837.72;4945436;28;121049;-94
2021/08/23 01:44:44;;;;;;;6.10;3.28;;;;;;;18.98;59.71;101879.81;4944255;28;120452;-92
2021/08/23 01:47:10;;;;;;;6.82;3.17;;;;;;;18.75;59.54;101847.31;4973728;28;119864;-94
2021/08/23 01:49:39;;;;;;;9.50;3.10;;;;;;;18.75;59.51;101850.09;4944473;28;120898;-96
2021/08/23 01:52:09;;;;;;;7.53;2.90;;;;;;;18.70;59.35;101835.63;4929590;28;121769;-96
2021/08/23 01:54:35;;;;;;;4.25;2.80;;;;;;;19.10;59.53;101903.00;4942745;28;118856;-95
2021/08/23 01:57:01;;;;;;;4.80;2.92;;;;;;;18.73;59.49;101841.47;4942344;28;118764;-94
2021/08/23 01:59:27;;;;;;;5.30;2.95;;;;;;;18.93;59.45;101872.91;4962753;28;120345;-94
2021/08/23 02:01:52;;;;;;;5.20;2.88;;;;;;;19.10;59.54;101897.44;4958544;28;121764;-91
2021/08/23 02:04:21;;;;;;;4.25;2.60;;;;;;;18.82;59.30;101861.59;4939710;28;121780;-96
2021/08/23 02:06:47;;;;;;;6.85;2.90;;;;;;;18.67;59.30;101835.78;4959286;28;118622;-95
2021/08/23 02:09:13;;;;;;;4.20;2.50;;;;;;;19.04;59.14;101891.00;4955650;28;120413;-95
2021/08/23 02:11:39;;;;;;;7.45;3.00;;;;;;;18.80;59.03;101866.09;4953687;28;122166;-94
2021/08/23 02:14:04;;;;;;;7.28;2.75;;;;;;;19.02;58.96;101903.38;4956429;28;118674;-96
2021/08/23 02:16:30;;;;;;;7.93;2.47;;;;;;;18.98;58.82;101893.72;4954302;28;120964;-94
2021/08/23 02:18:56;;;;;;;6.75;3.17;;;;;;;18.99;59.28;101898.78;4940605;28;122297;-94
2021/08/23 02:21:22;;;;;;;3.65;2.60;;;;;;;18.61;59.12;101843.25;4962396;28;118906;-95
2021/08/23 02:23:50;;;;;;;7.20;3.08;;;;;;;18.60;59.49;101844.47;4942755;28;120488;-95
2021/08/23 02:26:15;;;;;;;4.85;3.08;;;;;;;18.98;59.31;101910.41;4939106;28;121170;-95
2021/08/23 02:28:41;;;;;;;4.82;2.50;;;;;;;18.98;59.22;101907.63;4940011;28;121091;-96
2021/08/23 02:31:07;;;;;;;4.85;3.20;;;;;;;18.70;59.82;101871.75;4942144;28;120366;-94
2021/08/23 02:33:33;;;;;;;6.90;2.90;;;;;;;18.51;59.90;101853.69;4966741;28;119056;-95
2021/08/23 02:35:58;;;;;;;5.18;2.90;;;;;;;18.88;60.01;101920.81;4954716;28;118676;-91
2021/08/23 02:38:24;;;;;;;5.82;2.85;;;;;;;18.65;59.84;101900.19;4953802;28;122002;-95
2021/08/23 02:40:50;;;;;;;4.53;2.72;;;;;;;18.62;59.92;101908.69;4936720;28;119309;-94
2021/08/23 02:43:15;;;;;;;6.00;2.60;;;;;;;18.53;59.79;101901.22;4940805;28;119384;-95
2021/08/23 02:45:41;;;;;;;3.20;2.60;;;;;;;18.34;59.86;101883.91;4952293;28;119231;-95
2021/08/23 02:48:09;;;;;;;5.03;2.70;;;;;;;18.47;60.68;101908.69;4939496;28;121763;-95
2021/08/23 02:50:35;;;;;;;6.97;2.75;;;;;;;18.39;60.59;101908.25;4956947;28;119341;-94
2021/08/23 02:53:01;;;;;;;3.80;2.50;;;;;;;18.54;60.42;101926.97;4955822;28;118812;-94
2021/08/23 02:55:27;;;;;;;6.10;2.42;;;;;;;18.38;60.76;101911.50;4954123;28;120849;-95
2021/08/23 02:57:52;;;;;;;6.82;2.83;;;;;;;18.35;60.90;101912.47;4940690;28;122139;-93
2021/08/23 03:00:18;;;;;;;6.85;2.83;;;;;;;18.02;60.70;101868.13;4944171;28;118812;-96
2021/08/23 03:02:44;;;;;;;3.88;2.50;;;;;;;18.41;60.74;101927.22;4939512;28;120388;-95
2021/08/23 03:05:10;;;;;;;5.50;2.80;;;;;;;18.38;60.63;101931.72;4954218;28;120294;-94
2021/08/23 03:07:36;;;;;;;4.22;2.63;;;;;;;18.26;60.71;101921.66;4922415;28;121034;-91
2021/08/23 03:10:03;;;;;;;5.70;2.35;;;;;;;18.18;60.53;101905.78;4952897;28;122351;-96
2021/08/23 03:12:29;;;;;;;9.75;2.95;;;;;;;18.17;60.36;101909.81;4937803;28;118602;-94
2021/08/23 03:14:55;;;;;;;3.25;2.28;;;;;;;18.29;60.86;101937.34;4953416;28;119115;-92
2021/08/23 03:17:20;;;;;;;5.55;2.50;;;;;;;17.88;60.33;101871.59;4935687;28;121941;-95
2021/08/23 03:19:46;;;;;;;5.47;2.60;;;;;;;18.27;60.38;101934.28;4935948;28;118988;-94
2021/08/23 03:22:12;;;;;;;4.18;2.30;;;;;;;18.08;60.37;101916.22;4935358;28;121163;-94
2021/08/23 03:24:38;;;;;;;3.83;2.40;;;;;;;18.14;60.40;101939.31;4948948;28;120413;-95
2021/08/23 03:27:03;;;;;;;6.18;3.22;;;;;;;18.14;60.47;101944.09;4923350;28;120853;-95
2021/08/23 03:29:29;;;;;;;4.07;2.90;;;;;;;18.01;60.50;101922.13;4947362;28;122204;-96
2021/08/23 03:31:55;;;;;;;7.80;3.00;;;;;;;17.93;60.87;101916.13;4941109;28;119720;-96
2021/08/23 03:34:21;;;;;;;4.47;3.30;;;;;;;18.00;61.00;101932.47;4941527;28;120819;-93
2021/08/23 03:36:47;;;;;;;6.07;3.63;;;;;;;17.88;61.21;101907.69;4954132;28;121712;-94
2021/08/23 03:39:15;;;;;;;5.07;3.55;;;;;;;17.84;61.07;101907.09;4953823;28;118751;-92
2021/08/23 03:41:40;;;;;;;8.30;3.60;;;;;;;18.06;61.67;101943.69;4954026;28;122383;-95
2021/08/23 03:44:06;;;;;;;5.63;3.55;;;;;;;18.05;61.85;101950.47;4940169;28;122160;-96
2021/08/23 03:46:33;;;;;;;8.48;3.80;;;;;;;17.85;62.13;101928.06;4944445;28;118631;-95
2021/08/23 03:49:03;;;;;;;7.05;3.72;;;;;;;17.83;62.63;101925.75;4956745;28;122329;-95
2021/08/23 03:51:30;;;;;;;7.57;4.20;;;;;;;17.69;62.25;101907.78;4940563;28;118648;-95
2021/08/23 03:53:59;;;;;;;8.52;4.75;;;;;;;18.00;62.87;101953.91;4946979;28;121101;-95
2021/08/23 03:56:24;;;;;;;6.93;4.45;;;;;;;17.92;63.19;101947.16;4939052;28;122190;-94
2021/08/23 03:58:50;;;;;;;10.82;5.25;;;;;;;17.77;63.06;101925.66;4925767;28;119226;-92
2021/08/23 04:01:16;;;;;;;7.90;5.40;;;;;;;17.70;63.50;101916.88;4925367;28;119695;-94
2021/08/23 04:03:42;;;;;;;9.75;5.57;;;;;;;18.09;63.53;101973.28;4940025;28;122233;-95
2021/08/23 04:06:12;;;;;;;8.18;5.55;;;;;;;18.20;63.49;101984.63;4956316;28;119211;-94
2021/08/23 04:08:38;;;;;;;6.72;4.78;;;;;;;18.01;63.35;101949.88;4959574;28;121171;-94
2021/08/23 04:11:05;;;;;;;9.85;5.03;;;;;;;18.24;63.12;101988.00;4951831;23;119110;-93
2021/08/23 04:13:31;;;;;;;7.32;4.95;;;;;;;18.26;62.91;101991.09;4916834;28;118712;-92
2021/08/23 04:16:00;;;;;;;8.57;5.00;;;;;;;17.97;62.91;101954.81;4913780;28;122631;-92
2021/08/23 04:18:27;;;;;;;5.60;4.28;;;;;;;18.20;62.95;101987.41;4896824;28;118666;-93
2021/08/23 04:20:52;;;;;;;7.15;4.20;;;;;;;18.14;62.99;101985.75;4921996;28;119719;-94
2021/08/23 04:23:18;;;;;;;6.25;3.95;;;;;;;17.85;62.95;101941.94;4919489;28;123659;-93
2021/08/23 04:25:44;;;;;;;10.13;4.40;;;;;;;18.01;62.69;101963.78;4900853;28;119471;-93
2021/08/23 04:28:13;;;;;;;10.05;4.25;;;;;;;18.00;62.66;101967.78;4906909;28;120903;-93
2021/08/23 04:30:38;;;;;;;7.60;4.07;;;;;;;18.13;62.85;101992.53;4911034;28;121516;-93
2021/08/23 04:33:06;;;;;;;6.55;4.07;;;;;;;17.86;62.70;101955.34;4909842;28;120647;-92
2021/08/23 04:35:33;;;;;;;6.47;3.90;;;;;;;18.14;62.73;101997.63;4907923;28;122163;-92
2021/08/23 04:37:59;;;;;;;9.88;4.43;;;;;;;18.01;62.33;101991.53;4906037;28;119167;-91
2021/08/23 04:40:24;;;;;;;7.47;4.03;;;;;;;18.10;62.42;101999.81;4903727;28;120971;-92
2021/08/23 04:42:50;;;;;;;6.30;4.13;;;;;;;18.28;62.48;102035.03;4901926;28;120631;-92
2021/08/23 04:45:16;;;;;;;10.15;4.00;;;;;;;17.78;62.77;101951.38;4902915;28;118667;-93
2021/08/23 04:47:41;;;;;;;8.60;4.88;;;;;;;18.19;62.71;102027.50;4902783;28;121864;-93
2021/08/23 04:50:07;;;;;;;8.55;4.40;;;;;;;17.81;62.25;101975.44;4905641;28;120629;-93
2021/08/23 04:52:40;;;;;;;8.60;4.57;;;;;;;17.75;62.40;101972.53;4910461;28;118609;-93
2021/08/23 04:55:06;;;;;;;10.27;5.03;;;;;;;17.99;63.07;102007.88;4899862;28;122550;-93
2021/08/23 04:57:32;;;;;;;9.52;4.85;;;;;;;17.87;63.26;101986.66;4906790;28;118813;-92
2021/08/23 04:59:58;;;;;;;11.55;5.50;;;;;;;18.04;63.36;102013.56;4923325;28;119556;-93
2021/08/23 05:02:23;;;;;;;8.63;5.20;;;;;;;17.96;63.87;102000.47;4917483;28;120734;-92
2021/08/23 05:04:49;;;;;;;8.25;5.57;;;;;;;17.92;63.73;101992.31;4905073;28;119327;-93
2021/08/23 05:07:15;;;;;;;13.73;5.88;;;;;;;18.17;64.03;102027.22;4906931;28;122201;-94
2021/08/23 05:09:40;;;;;;;10.27;5.63;;;;;;;18.03;64.19;102008.47;4908867;28;120608;-92
2021/08/23 05:12:06;;;;;;;11.38;5.60;;;;;;;17.93;64.26;101985.53;4926919;28;118890;-90
2021/08/23 05:14:32;;;;;;;11.68;5.97;;;;;;;18.12;64.56;102008.44;4893592;28;122197;-93
2021/08/23 05:16:57;;;;;;;13.10;6.88;;;;;;;18.17;64.62;102015.34;4910190;28;118948;-93
2021/08/23 05:19:23;;;;;;;10.00;6.95;;;;;;;18.06;65.06;101988.09;4909610;28;121004;-93
2021/08/23 05:21:49;;;;;;;12.80;7.07;;;;;;;18.22;65.26;102015.50;4893442;28;120648;-93
2021/08/23 05:24:14;;;;;;;11.65;6.97;;;;;;;18.05;65.50;101990.13;4904656;28;119173;-93
2021/08/23 05:26:40;;;;;;;11.07;6.45;;;;;;;18.30;65.66;102021.44;4903015;28;121276;-91
2021/08/23 05:29:06;;;;;;;12.68;7.38;;;;;;;18.48;65.72;102038.03;4897566;28;120249;-93
2021/08/23 05:31:31;;;;;;;14.48;7.65;;;;;;;18.57;66.16;102051.06;4889602;28;118993;-93
2021/08/23 05:33:57;;;;;;;13.95;7.20;;;;;;;18.56;66.22;102043.97;4909809;28;119585;-92
2021/08/23 05:36:23;;;;;;;13.65;8.20;;;;;;;18.53;66.63;102039.38;4905851;28;118707;-93
2021/08/23 05:38:49;;;;;;;19.20;8.00;;;;;;;18.48;66.44;102026.13;4906630;28;121034;-93
2021/08/23 05:41:14;;;;;;;15.60;8.57;;;;;;;18.86;66.85;102073.44;4905927;28;122067;-91
2021/08/23 05:43:40;;;;;;;14.98;8.50;;;;;;;18.69;66.97;102041.75;4914759;28;118773;-93
2021/08/23 05:46:06;;;;;;;17.85;8.35;;;;;;;18.74;67.01;102032.00;4942487;28;119261;-93
2021/08/23 05:48:32;;;;;;;14.57;8.55;;;;;;;18.91;66.97;102056.09;4908398;28;121931;-93
2021/08/23 05:50:58;;;;;;;15.07;8.48;;;;;;;18.69;67.07;102011.16;4906701;28;119150;-93
2021/08/23 05:53:26;;;;;;;13.82;8.23;;;;;;;18.91;66.97;102035.88;4909136;28;119568;-93
2021/08/23 05:55:52;;;;;;;18.20;9.32;;;;;;;18.96;67.05;102033.22;4928695;28;120702;-92
2021/08/23 05:58:18;;;;;;;16.00;9.15;;;;;;;19.02;67.16;102039.66;4903360;28;121225;-92
2021/08/23 06:00:43;;;;;;;16.38;9.00;;;;;;;18.93;67.26;102027.84;4916525;28;122241;-92
2021/08/23 06:03:09;;;;;;;18.10;9.82;;;;;;;19.15;67.08;102055.28;4912415;28;118810;-92
2021/08/23 06:05:36;;;;;;;17.27;9.93;;;;;;;19.25;67.30;102062.31;4921583;28;122171;-92
2021/08/23 06:08:02;;;;;;;18.52;10.32;;;;;;;19.22;67.47;102046.59;4889481;28;122024;-92
2021/08/23 06:10:28;;;;;;;19.00;10.25;;;;;;;19.34;67.27;102062.22;4907592;28;119318;-93
2021/08/23 06:12:54;;;;;;;20.13;10.30;;;;;;;19.56;67.08;102096.06;4904149;28;121104;-92
2021/08/23 06:15:20;;;;;;;17.75;10.57;;;;;;;19.40;67.54;102054.75;4920339;28;119493;-93
2021/08/23 06:17:46;;;;;;;19.05;10.50;;;;;;;19.27;67.26;102037.56;4907313;28;118792;-93
2021/08/23 06:20:12;;;;;;;19.83;10.30;;;;;;;19.30;67.62;102034.59;4912788;28;120746;-92
2021/08/23 06:22:37;;;;;;;19.55;11.30;;;;;;;19.45;67.28;102062.44;4897217;28;119477;-92
2021/08/23 06:25:07;;;;;;;19.83;11.65;;;;;;;19.22;67.02;102027.88;4904463;28;119540;-93
2021/08/23 06:27:32;;;;;;;17.05;10.27;;;;;;;19.41;67.31;102047.19;4920864;28;122290;-92
2021/08/23 06:29:59;;;;;;;17.25;10.82;;;;;;;19.52;67.46;102058.50;4893122;28;118796;-93
2021/08/23 06:32:25;;;;;;;18.30;10.98;;;;;;;19.71;67.39;102096.06;4897705;28;121022;-90
2021/08/23 06:34:50;;;;;;;18.13;10.93;;;;;;;19.58;67.21;102068.50;4911530;28;121527;-92
2021/08/23 06:37:18;;;;;;;17.55;10.90;;;;;;;19.53;67.26;102063.63;4903783;28;118821;-93
2021/08/23 06:39:44;;;;;;;25.92;11.18;;;;;;;19.51;67.23;102059.75;4907863;28;119400;-93
2021/08/23 06:42:10;;;;;;;17.63;10.40;;;;;;;19.61;67.16;102064.75;4891461;28;118846;-92
2021/08/23 06:44:36;;;;;;;16.33;9.95;;;;;;;19.84;67.11;102104.88;4918359;28;121346;-93
2021/08/23 06:47:02;;;;;;;17.13;9.15;;;;;;;19.98;66.75;102116.50;4914391;28;121885;-92
2021/08/23 06:49:27;;;;;;;16.02;10.02;;;;;;;19.96;66.69;102105.84;4911889;28;118847;-92
2021/08/23 06:51:53;;;;;;;16.48;9.35;;;;;;;19.69;66.40;102067.94;4917657;28;121472;-92
2021/08/23 06:54:19;;;;;;;13.10;8.43;;;;;;;19.85;66.15;102095.28;4895123;28;122378;-92
2021/08/23 06:56:47;;;;;;;16.33;9.40;;;;;;;20.02;65.87;102114.28;4915444;28;119228;-93
2021/08/23 06:59:12;;;;;;;13.95;8.50;;;;;;;20.03;65.60;102111.00;4924875;28;119758;-93
2021/08/23 07:01:38;;;;;;;14.52;8.10;;;;;;;19.97;65.64;102093.44;4915872;28;119360;-93
2021/08/23 07:04:07;;;;;;;16.92;9.07;;;;;;;19.80;65.44;102076.47;4917672;28;119488;-92
2021/08/23 07:06:33;;;;;;;14.43;7.72;;;;;;;20.11;65.40;102128.09;4913525;28;120782;-91
2021/08/23 07:08:58;;;;;;;10.52;7.55;;;;;;;20.11;64.88;102120.53;4940452;28;118916;-92
2021/08/23 07:11:24;;;;;;;12.35;7.28;;;;;;;20.27;64.89;102141.53;4895713;28;119840;-93
2021/08/23 07:13:50;;;;;;;11.40;6.55;;;;;;;20.10;65.08;102113.41;4918737;28;122214;-93
2021/08/23 07:16:15;;;;;;;9.02;6.40;;;;;;;20.21;64.51;102123.97;4886925;28;118859;-91
2021/08/23 07:18:41;;;;;;;9.25;6.05;;;;;;;20.24;64.04;102132.13;4902659;28;120579;-93
2021/08/23 07:21:07;;;;;;;10.60;6.25;;;;;;;20.06;64.26;102098.13;4934935;28;119638;-91
2021/08/23 07:23:32;;;;;;;9.73;5.70;;;;;;;20.32;63.80;102138.06;4908860;28;119894;-93
2021/08/23 07:26:01;;;;;;;8.52;5.53;;;;;;;20.37;63.65;102139.41;4906183;28;122343;-93
2021/08/23 07:28:27;;;;;;;7.35;4.57;;;;;;;20.42;63.92;102144.34;4902188;28;118997;-92
2021/08/23 07:30:52;;;;;;;6.90;4.68;;;;;;;20.23;63.63;102108.28;4923097;28;121249;-91
2021/08/23 07:33:18;;;;;;;8.38;5.10;;;;;;;20.31;63.67;102113.47;4906523;28;121100;-92
2021/08/23 07:35:44;;;;;;;7.75;4.70;;;;;;;20.42;62.64;102119.25;4905650;28;119091;-93
2021/08/23 07:38:09;;;;;;;9.20;5.20;;;;;;;20.53;63.06;102138.91;4936301;28;120136;-93
2021/08/23 07:40:35;;;;;;;7.57;4.88;;;;;;;20.60;62.77;102146.88;4906831;28;122778;-93
2021/08/23 07:43:02;;;;;;;10.48;4.72;;;;;;;20.81;63.07;102167.94;4912762;28;119178;-93
2021/08/23 07:45:28;;;;;;;10.57;4.55;;;;;;;20.45;62.39;102107.13;4910831;28;123654;-93
2021/08/23 07:47:53;;;;;;;8.68;4.45;;;;;;;20.72;62.18;102145.78;4903783;28;119131;-93
2021/08/23 07:50:19;;;;;;;11.00;4.63;;;;;;;20.79;62.12;102144.59;4907018;28;120836;-92
2021/08/23 07:52:45;;;;;;;7.13;4.05;;;;;;;20.84;61.61;102149.50;4903300;28;121247;-92
2021/08/23 07:55:12;;;;;;;9.85;4.82;;;;;;;20.87;61.27;102136.59;4900593;28;120113;-92
2021/08/23 07:57:46;;;;;;;11.75;6.30;;;;;;;20.81;61.64;102117.75;4933736;28;123194;-93
2021/08/23 08:00:14;;;;;;;10.07;5.10;;;;;;;20.86;61.16;102113.53;4908365;28;124189;-94
2021/08/23 08:02:40;;;;;;;5.63;3.97;;;;;;;21.00;60.94;102104.28;4904850;28;119985;-92
2021/08/23 08:05:07;;;;;;;7.40;4.10;;;;;;;21.38;61.13;102152.72;4892985;28;123255;-93
2021/08/23 08:07:33;;;;;;;6.57;3.45;;;;;;;21.42;59.82;102144.88;4886946;28;120081;-93
2021/08/23 08:09:58;;;;;;;6.30;3.53;;;;;;;21.43;59.76;102138.81;4903112;28;122040;-93
2021/08/23 08:12:24;;;;;;;5.35;2.80;;;;;;;21.34;59.10;102104.72;4912960;28;124378;-93
2021/08/23 08:14:51;;;;;;;10.13;3.60;;;;;;;21.56;58.97;102118.13;4906569;28;120230;-93
2021/08/23 08:17:17;;;;;;;7.60;3.28;;;;;;;21.84;58.10;102151.91;4901812;28;122225;-93
2021/08/23 08:19:42;;;;;;;6.88;3.33;;;;;;;21.89;58.01;102145.59;4929333;28;120891;-94
2021/08/23 08:22:08;;;;;;;7.88;2.90;;;;;;;21.97;57.69;102158.63;4894348;28;121313;-93
2021/08/23 08:24:34;;;;;;;5.05;2.67;;;;;;;22.11;58.24;102168.16;4908726;28;122727;-93
2021/08/23 08:26:59;;;;;;;4.18;2.67;;;;;;;22.12;57.81;102152.94;4902823;28;123450;-93
2021/08/23 08:29:25;;;;;;;3.92;2.20;;;;;;;22.00;56.80;102124.13;4914556;28;121538;-92
2021/08/23 08:31:51;;;;;;;6.28;2.95;;;;;;;22.47;56.41;102194.59;4884393;28;124105;-92
2021/08/23 08:34:17;;;;;;;7.70;2.80;;;;;;;22.18;56.75;102145.34;4896928;28;120614;-93
2021/08/23 08:36:42;;;;;;;4.90;2.60;;;;;;;22.31;56.53;102147.75;4906411;28;122751;-93
2021/08/23 08:39:08;;;;;;;4.85;3.00;;;;;;;22.47;56.30;102163.09;4912177;28;121206;-92
2021/08/23 08:41:34;;;;;;;6.15;2.60;;;;;;;22.46;56.13;102151.13;4899612;28;121232;-92
2021/08/23 08:44:03;;;;;;;5.68;2.60;;;;;;;22.60;55.94;102167.00;4904100;28;123200;-93
2021/08/23 08:46:29;;;;;;;4.07;2.88;;;;;;;22.66;56.71;102181.78;4935302;28;124755;-92
2021/08/23 08:48:56;;;;;;;3.60;2.40;;;;;;;22.75;56.09;102174.47;4953112;28;120859;-93
2021/08/23 08:51:23;;;;;;;5.70;2.63;;;;;;;22.57;55.20;102153.25;4915858;28;121522;-93
2021/08/23 08:53:49;;;;;;;3.60;2.30;;;;;;;22.99;54.88;102211.25;4904273;28;122171;-94
2021/08/23 08:56:14;;;;;;;7.05;2.50;;;;;;;22.70;54.78;102167.56;4898144;28;123214;-94
2021/08/23 08:58:40;;;;;;;4.22;2.33;;;;;;;22.96;54.07;102192.69;4900225;28;124121;-92
2021/08/23 09:01:06;;;;;;;3.60;2.33;;;;;;;23.04;53.39;102207.72;4891488;28;120960;-93
2021/08/23 09:03:32;;;;;;;3.28;2.10;;;;;;;22.65;52.82;102143.88;4900291;28;121404;-93
2021/08/23 09:06:03;;;;;;;5.25;2.10;;;;;;;22.77;53.69;102164.31;4900042;28;123847;-92
2021/08/23 09:08:29;;;;;;;5.50;2.17;;;;;;;23.08;53.38;102213.84;4903277;28;121499;-93
2021/08/23 09:11:07;;;;;;;3.13;2.20;;;;;;;23.06;52.26;102204.41;4922338;28;122823;-92
2021/08/23 09:13:33;;;;;;;6.03;1.98;;;;;;;22.82;52.86;102163.59;4912587;28;121544;-92
2021/08/23 09:15:59;;;;;;;4.00;2.03;;;;;;;22.90;52.38;102181.44;4901474;28;121611;-92
2021/08/23 09:18:29;;;;;;;4.63;2.38;;;;;;;23.02;52.69;102189.91;4897118;28;124132;-92
2021/08/23 09:21:06;;;;;;;6.10;2.47;;;;;;;23.14;52.81;102203.44;4901696;28;123639;-93
2021/08/23 09:23:52;;;;;;;2.78;1.77;;;;;;;23.21;51.22;102208.56;4915140;28;121521;-91
2021/08/23 09:26:18;;;;;;;3.10;2.10;;;;;;;23.25;51.38;102220.28;4907034;28;125501;-92
2021/08/23 09:29:05;;;;;;;2.92;1.83;;;;;;;23.26;51.08;102224.63;4901808;28;122312;-90
2021/08/23 09:31:34;;;;;;;2.63;2.00;;;;;;;23.22;50.02;102226.91;4911303;28;121860;-90
2021/08/23 09:34:05;;;;;;;3.30;1.80;;;;;;;23.22;50.50;102217.72;4896062;28;122269;-90
2021/08/23 09:36:31;;;;;;;14.50;2.40;;;;;;;23.19;49.69;102225.09;4897199;28;123448;-90
2021/08/23 09:38:58;;;;;;;3.33;1.85;;;;;;;23.24;48.79;102224.34;4888839;28;124535;-91
2021/08/23 09:41:24;;;;;;;3.17;2.05;;;;;;;23.26;48.51;102218.25;4899961;28;122318;-90
2021/08/23 09:44:07;;;;;;;5.75;1.77;;;;;;;23.33;48.92;102228.19;4900980;28;123067;-91
2021/08/23 09:46:35;;;;;;;2.43;1.67;;;;;;;23.35;48.75;102220.06;4901766;28;124414;-91
2021/08/23 09:49:06;;;;;;;9.43;2.42;;;;;;;23.40;48.35;102220.06;4892615;28;121970;-90
2021/08/23 09:51:54;;;;;;;3.33;2.30;;;;;;;23.44;49.63;102222.66;4895673;28;124024;-91
2021/08/23 09:54:24;;;;;;;3.22;2.17;;;;;;;22.95;49.55;102149.19;4922166;28;125588;-91
2021/08/23 09:57:23;;;;;;;2.28;1.80;;;;;;;23.23;49.40;102192.03;4895504;28;124399;-91
2021/08/23 10:00:21;;;;;;;2.70;1.83;;;;;;;23.23;49.23;102182.88;4895609;28;124818;-91
2021/08/23 10:07:07;;;;;;;3.47;1.88;;;;;;;23.25;49.34;102195.09;4924615;28;121702;-90
2021/08/23 10:09:33;;;;;;;2.92;1.88;;;;;;;23.44;48.22;102217.06;4906916;28;124617;-91
2021/08/23 10:11:59;;;;;;;2.92;1.80;;;;;;;23.46;47.25;102220.13;4892582;28;121836;-91
2021/08/23 10:14:25;;;;;;;3.30;2.17;;;;;;;23.36;47.66;102199.19;4893355;28;123579;-91
2021/08/23 10:16:51;;;;;;;3.25;2.13;;;;;;;23.38;48.00;102208.63;4893881;28;125443;-91
2021/08/23 10:19:17;;;;;;;3.97;1.90;;;;;;;23.51;48.65;102216.56;4917727;28;121910;-89
2021/08/23 10:21:45;;;;;;;4.28;2.08;;;;;;;23.54;48.78;102218.34;4891638;28;124344;-91
2021/08/23 10:24:16;;;;;;;3.45;1.98;;;;;;;23.54;48.14;102226.75;4904962;28;122025;-91
2021/08/23 10:26:44;;;;;;;3.63;1.90;;;;;;;23.54;47.93;102216.31;4893077;28;123400;-91
2021/08/23 10:29:13;;;;;;;3.15;1.90;;;;;;;23.56;47.84;102224.25;4920990;28;124445;-90
2021/08/23 10:31:41;;;;;;;3.35;1.80;;;;;;;23.54;47.89;102223.94;4902844;28;121928;-90
2021/08/23 10:34:29;;;;;;;5.07;2.00;;;;;;;23.46;47.75;102220.88;4898618;28;123085;-91
2021/08/23 10:36:54;;;;;;;6.13;2.40;;;;;;;23.54;47.55;102229.56;4893054;28;124366;-91
2021/08/23 10:39:24;;;;;;;3.03;2.10;;;;;;;23.54;47.87;102227.50;4895185;28;122116;-90
2021/08/23 10:41:52;;;;;;;4.15;2.17;;;;;;;23.55;47.34;102225.47;4920308;28;123350;-90
2021/08/23 10:44:29;;;;;;;2.28;1.75;;;;;;;23.60;47.73;102224.00;4895137;28;121611;-90
2021/08/23 10:47:15;;;;;;;6.03;1.80;;;;;;;23.59;48.07;102231.63;4887133;28;124327;-90
2021/08/23 10:49:46;;;;;;;2.60;1.70;;;;;;;23.65;47.82;102231.63;4787073;23;125444;-75
2021/08/23 10:52:13;;;;;;;5.53;2.08;;;;;;;23.67;47.33;102229.88;4959045;28;121996;-76
2021/08/23 10:54:41;;;;;;;4.72;2.00;;;;;;;23.71;47.70;102218.44;4951561;28;121819;-76
2021/08/23 10:57:12;;;;;;;3.28;1.60;;;;;;;23.76;46.63;102224.03;4926509;28;125885;-75
2021/08/23 10:59:44;;;;;;;2.10;1.50;;;;;;;23.80;47.36;102226.59;4940269;28;122331;-76
2021/08/23 11:02:34;;;;;;;4.53;1.88;;;;;;;23.78;46.80;102226.34;4933204;28;124225;-75
2021/08/23 11:05:14;;;;;;;3.28;2.03;;;;;;;23.78;47.17;102227.09;4943515;28;122464;-76
2021/08/23 11:07:42;;;;;;;5.63;2.28;;;;;;;23.77;47.66;102222.00;4930476;28;122444;-75
2021/08/23 11:10:09;;;;;;;4.10;2.03;;;;;;;23.76;47.79;102223.28;4928364;28;122495;-75
2021/08/23 11:12:44;;;;;;;3.55;1.90;;;;;;;23.75;47.77;102221.75;4929086;28;124912;-75
2021/08/23 11:15:14;;;;;;;4.20;2.22;;;;;;;23.84;46.99;102233.47;4927823;28;122235;-75
2021/08/23 11:17:44;;;;;;;4.00;2.05;;;;;;;23.84;47.49;102227.88;4927991;28;122932;-75
2021/08/23 11:20:11;;;;;;;5.32;1.95;;;;;;;23.83;47.20;102237.56;4939613;28;121947;-75
2021/08/23 11:22:39;;;;;;;3.28;2.13;;;;;;;23.79;47.46;102237.03;4922061;28;122298;-75